createdAt,value
2018-11-10T00:02:08.847Z,38.33
2018-11-10T00:04:39.384Z,38.27
2018-11-10T00:07:09.782Z,38.77
2018-11-10T00:09:39.826Z,38.63
2018-11-10T00:12:10.562Z,38.57
2018-11-10T00:14:40.730Z,38.40
2018-11-10T00:17:10.878Z,38.50
2018-11-10T00:19:41.001Z,38.87
2018-11-10T00:22:11.177Z,38.83
2018-11-10T00:24:42.044Z,38.80
2018-11-10T00:27:12.826Z,37.80
2018-11-10T00:29:44.212Z,38.30
2018-11-10T00:32:15.117Z,38.33
2018-11-10T00:34:45.741Z,38.80
2018-11-10T00:37:15.993Z,39.03
2018-11-10T00:39:46.387Z,39.43
2018-11-10T00:42:16.876Z,38.70
2018-11-10T00:44:47.153Z,38.90
2018-11-10T00:47:17.722Z,38.73
2018-11-10T00:49:48.010Z,39.50
2018-11-10T00:52:18.090Z,39.40
2018-11-10T00:54:48.919Z,39.60
2018-11-10T00:57:20.454Z,39.03
2018-11-10T00:59:51.075Z,38.93
2018-11-10T01:02:21.890Z,38.73
2018-11-10T01:04:52.448Z,38.67
2018-11-10T01:07:23.042Z,38.60
2018-11-10T01:09:55.735Z,37.57
2018-11-10T01:12:26.452Z,37.37
2018-11-10T01:14:56.546Z,38.67
2018-11-10T01:17:26.723Z,38.53
2018-11-10T01:19:56.905Z,38.67
2018-11-10T01:22:27.438Z,37.97
2018-11-10T01:25:00.323Z,37.67
2018-11-10T01:27:30.937Z,38.07
2018-11-10T01:30:02.880Z,37.73
2018-11-10T01:32:33.247Z,38.70
2018-11-10T01:35:03.863Z,39.43
2018-11-10T01:37:34.206Z,38.27
2018-11-10T01:40:05.447Z,38.80
2018-11-10T01:42:36.391Z,38.70
2018-11-10T01:45:08.548Z,38.90
2018-11-10T01:47:38.965Z,39.00
2018-11-10T01:50:09.629Z,38.70
2018-11-10T01:52:40.085Z,38.60
2018-11-10T01:55:11.060Z,38.80
2018-11-10T01:57:42.215Z,38.87
2018-11-10T02:00:18.278Z,39.17
2018-11-10T02:02:50.767Z,38.60
2018-11-10T02:05:21.395Z,38.83
2018-11-10T02:07:51.921Z,38.57
2018-11-10T02:10:22.015Z,39.17
2018-11-10T02:12:52.833Z,39.07
2018-11-10T02:15:22.839Z,38.93
2018-11-10T02:17:53.118Z,38.80
2018-11-10T02:20:24.457Z,39.20
2018-11-10T02:22:54.468Z,39.17
2018-11-10T02:25:24.780Z,39.03
2018-11-10T02:27:54.865Z,39.70
2018-11-10T02:30:25.469Z,38.90
2018-11-10T02:32:57.055Z,38.37
2018-11-10T02:35:28.129Z,37.47
2018-11-10T02:37:58.862Z,37.37
2018-11-10T02:40:29.493Z,38.47
2018-11-10T02:42:59.597Z,39.23
2018-11-10T02:45:29.738Z,38.77
2018-11-10T02:48:00.070Z,38.27
2018-11-10T02:50:30.285Z,38.10
2018-11-10T02:53:00.371Z,37.50
2018-11-10T02:55:30.294Z,38.50
2018-11-10T02:58:00.303Z,38.47
2018-11-10T03:00:30.579Z,37.97
2018-11-10T03:03:00.719Z,37.93
2018-11-10T03:05:30.999Z,37.60
2018-11-10T03:08:01.167Z,38.47
2018-11-10T03:10:31.834Z,38.20
2018-11-10T03:13:02.133Z,37.93
2018-11-10T03:15:32.396Z,37.87
2018-11-10T03:18:02.378Z,37.93
2018-11-10T03:20:32.667Z,37.87
2018-11-10T03:23:03.036Z,38.20
2018-11-10T03:25:33.105Z,38.23
2018-11-10T03:28:03.278Z,38.00
2018-11-10T03:30:33.482Z,37.60
2018-11-10T03:33:03.797Z,37.83
2018-11-10T03:35:34.195Z,37.83
2018-11-10T03:38:04.365Z,38.53
2018-11-10T03:40:34.415Z,38.23
2018-11-10T03:43:04.647Z,38.43
2018-11-10T03:45:34.752Z,38.07
2018-11-10T03:48:05.105Z,38.23
2018-11-10T03:50:35.388Z,38.33
2018-11-10T03:53:05.683Z,38.10
2018-11-10T03:55:35.765Z,37.90
2018-11-10T03:58:06.192Z,38.53
2018-11-10T04:00:36.195Z,37.83
2018-11-10T04:03:06.737Z,37.93
2018-11-10T04:05:37.162Z,38.60
2018-11-10T04:08:07.501Z,38.80
2018-11-10T04:10:38.031Z,37.87
2018-11-10T04:13:08.155Z,38.37
2018-11-10T04:15:38.378Z,37.60
2018-11-10T04:18:08.392Z,38.13
2018-11-10T04:20:38.567Z,38.13
2018-11-10T04:23:08.989Z,38.07
2018-11-10T04:25:38.934Z,38.23
2018-11-10T04:28:09.008Z,38.40
2018-11-10T04:30:39.174Z,38.10
2018-11-10T04:33:09.371Z,38.40
2018-11-10T04:35:39.972Z,38.37
2018-11-10T04:38:10.115Z,38.30
2018-11-10T04:40:46.995Z,37.83
2018-11-10T04:43:16.961Z,38.20
2018-11-10T04:45:47.102Z,38.00
2018-11-10T04:48:17.451Z,38.30
2018-11-10T04:50:48.054Z,38.03
2018-11-10T04:53:18.114Z,39.00
2018-11-10T04:55:48.414Z,37.73
2018-11-10T04:58:18.959Z,38.33
2018-11-10T05:00:49.345Z,38.57
2018-11-10T05:03:19.405Z,38.33
2018-11-10T05:05:49.643Z,38.50
2018-11-10T05:08:19.892Z,38.33
2018-11-10T05:10:49.977Z,38.53
2018-11-10T05:13:20.559Z,38.57
2018-11-10T05:15:50.844Z,38.10
2018-11-10T05:18:21.251Z,38.13
2018-11-10T05:20:51.473Z,37.87
2018-11-10T05:23:21.783Z,38.30
2018-11-10T05:25:52.026Z,38.23
2018-11-10T05:28:22.326Z,38.23
2018-11-10T05:30:52.577Z,39.00
2018-11-10T05:33:22.689Z,37.90
2018-11-10T05:35:54.115Z,38.43
2018-11-10T05:38:27.089Z,37.93
2018-11-10T05:40:58.902Z,37.97
2018-11-10T05:43:29.109Z,38.27
2018-11-10T05:46:02.821Z,37.73
2018-11-10T05:48:33.145Z,39.63
2018-11-10T05:51:03.351Z,38.93
2018-11-10T05:53:33.622Z,38.73
2018-11-10T05:56:03.982Z,38.63
2018-11-10T05:58:34.464Z,38.20
2018-11-10T06:01:04.772Z,38.07
2018-11-10T06:03:35.085Z,38.83
2018-11-10T06:06:05.714Z,38.20
2018-11-10T06:08:35.989Z,38.23
2018-11-10T06:11:06.363Z,39.10
2018-11-10T06:13:37.344Z,38.23
2018-11-10T06:16:08.221Z,37.90
2018-11-10T06:18:39.849Z,38.47
2018-11-10T06:21:09.817Z,38.30
2018-11-10T06:23:40.113Z,38.77
2018-11-10T06:26:10.298Z,38.30
2018-11-10T06:28:40.560Z,39.10
2018-11-10T06:31:11.659Z,39.20
2018-11-10T06:33:41.930Z,38.97
2018-11-10T06:36:12.071Z,39.07
2018-11-10T06:38:44.835Z,39.13
2018-11-10T06:41:15.274Z,37.60
2018-11-10T06:43:45.415Z,38.20
2018-11-10T06:46:15.857Z,38.50
2018-11-10T06:48:45.856Z,38.10
2018-11-10T06:51:15.872Z,38.63
2018-11-10T06:53:46.160Z,38.97
2018-11-10T06:56:16.670Z,38.67
2018-11-10T06:58:47.236Z,38.60
2018-11-10T07:01:17.372Z,38.27
2018-11-10T07:03:47.618Z,37.90
2018-11-10T07:06:17.810Z,38.87
2018-11-10T07:08:48.204Z,37.73
2018-11-10T07:11:19.823Z,38.23
2018-11-10T07:13:50.493Z,38.10
2018-11-10T07:16:20.435Z,38.43
2018-11-10T07:18:50.512Z,38.47
2018-11-10T07:21:20.552Z,38.47
2018-11-10T07:23:50.578Z,37.80
2018-11-10T07:26:20.730Z,38.10
2018-11-10T07:28:50.700Z,38.57
2018-11-10T07:31:20.710Z,38.57
2018-11-10T07:33:51.279Z,40.00
2018-11-10T07:36:22.287Z,38.27
2018-11-10T07:38:52.545Z,38.43
2018-11-10T07:41:23.107Z,38.23
2018-11-10T07:43:53.224Z,38.10
2018-11-10T07:46:23.409Z,38.20
2018-11-10T07:48:53.323Z,38.63
2018-11-10T07:51:23.626Z,38.20
2018-11-10T07:53:53.812Z,38.63
2018-11-10T07:56:23.880Z,39.03
2018-11-10T07:58:53.945Z,38.50
2018-11-10T08:01:23.923Z,39.10
2018-11-10T08:03:54.099Z,38.40
2018-11-10T08:06:24.064Z,39.13
2018-11-10T08:08:54.343Z,39.17
2018-11-10T08:11:24.714Z,38.70
2018-11-10T08:13:54.765Z,39.83
2018-11-10T08:16:25.453Z,39.53
2018-11-10T08:18:56.135Z,37.70
2018-11-10T08:21:26.271Z,38.43
2018-11-10T08:23:56.469Z,39.00
2018-11-10T08:26:26.359Z,38.73
2018-11-10T08:28:56.325Z,39.33
2018-11-10T08:31:26.757Z,39.27
2018-11-10T08:33:56.919Z,39.07
2018-11-10T08:36:27.512Z,39.57
2018-11-10T08:38:58.828Z,39.27
2018-11-10T08:41:29.037Z,39.77
2018-11-10T08:43:59.446Z,40.03
2018-11-10T08:46:29.505Z,40.10
2018-11-10T08:48:59.665Z,39.67
2018-11-10T08:51:29.660Z,39.87
2018-11-10T08:53:59.865Z,39.63
2018-11-10T08:56:30.086Z,40.00
2018-11-10T08:59:00.280Z,40.10
2018-11-10T09:01:32.183Z,39.47
2018-11-10T09:04:02.921Z,39.83
2018-11-10T09:06:33.037Z,39.57
2018-11-10T09:09:03.342Z,39.13
2018-11-10T09:11:33.549Z,39.50
2018-11-10T09:14:03.715Z,40.43
2018-11-10T09:16:34.943Z,39.53
2018-11-10T09:19:05.190Z,39.33
2018-11-10T09:21:35.427Z,39.23
2018-11-10T09:24:16.274Z,39.37
2018-11-10T09:26:46.813Z,39.93
2018-11-10T09:29:17.126Z,39.60
2018-11-10T09:31:47.300Z,40.33
2018-11-10T09:34:17.798Z,39.50
2018-11-10T09:36:47.847Z,39.97
2018-11-10T09:39:17.914Z,39.90
2018-11-10T09:41:48.484Z,40.73
2018-11-10T09:44:18.492Z,39.37
2018-11-10T09:46:49.012Z,39.63
2018-11-10T09:49:19.193Z,40.07
2018-11-10T09:51:49.482Z,40.90
2018-11-10T09:54:19.709Z,40.07
2018-11-10T09:56:49.929Z,39.87
2018-11-10T09:59:20.396Z,40.03
2018-11-10T10:01:51.680Z,40.53
2018-11-10T10:04:21.619Z,40.23
2018-11-10T10:06:51.843Z,40.03
2018-11-10T10:09:22.068Z,41.70
2018-11-10T10:11:52.370Z,40.67
2018-11-10T10:14:23.132Z,41.17
2018-11-10T10:16:54.012Z,41.10
2018-11-10T10:19:24.182Z,41.20
2018-11-10T10:21:54.626Z,41.23
2018-11-10T10:24:24.619Z,40.70
2018-11-10T10:26:54.592Z,40.67
2018-11-10T10:29:25.867Z,40.80
2018-11-10T10:31:55.962Z,41.07
2018-11-10T10:34:26.092Z,40.20
2018-11-10T10:36:56.311Z,41.17
2018-11-10T10:39:26.913Z,41.37
2018-11-10T10:41:57.296Z,41.07
2018-11-10T10:44:28.278Z,40.13
2018-11-10T10:46:58.230Z,40.93
2018-11-10T10:49:28.499Z,40.70
2018-11-10T10:51:59.029Z,41.43
2018-11-10T10:54:29.252Z,39.97
2018-11-10T10:56:59.593Z,40.73
2018-11-10T10:59:29.629Z,41.70
2018-11-10T11:02:04.554Z,41.40
2018-11-10T11:04:41.035Z,41.77
2018-11-10T11:07:11.076Z,40.80
2018-11-10T11:09:41.709Z,40.33
2018-11-10T11:12:11.917Z,40.80
2018-11-10T11:14:42.602Z,41.13
2018-11-10T11:17:13.531Z,41.00
2018-11-10T11:19:44.808Z,40.47
2018-11-10T11:22:15.131Z,40.53
2018-11-10T11:24:45.761Z,40.67
2018-11-10T11:27:16.059Z,41.07
2018-11-10T11:29:46.292Z,41.40
2018-11-10T11:32:16.509Z,40.77
2018-11-10T11:34:47.087Z,40.73
2018-11-10T11:37:17.224Z,40.93
2018-11-10T11:39:47.326Z,40.63
2018-11-10T11:42:17.701Z,40.90
2018-11-10T11:44:47.766Z,41.10
2018-11-10T11:47:17.697Z,40.30
2018-11-10T11:49:48.227Z,40.63
2018-11-10T11:52:19.301Z,41.23
2018-11-10T11:54:49.623Z,40.83
2018-11-10T11:57:20.685Z,41.00
2018-11-10T11:59:51.203Z,40.57
2018-11-10T12:02:22.474Z,39.67
2018-11-10T12:04:53.648Z,40.77
2018-11-10T12:07:24.087Z,40.97
2018-11-10T12:09:54.229Z,41.57
2018-11-10T12:12:24.576Z,41.90
2018-11-10T12:14:54.818Z,41.20
2018-11-10T12:17:25.393Z,40.80
2018-11-10T12:19:55.771Z,41.77
2018-11-10T12:22:25.924Z,41.20
2018-11-10T12:24:58.435Z,42.07
2018-11-10T12:27:30.139Z,41.30
2018-11-10T12:30:00.458Z,41.33
2018-11-10T12:32:31.129Z,42.13
2018-11-10T12:35:01.508Z,41.97
2018-11-10T12:37:31.938Z,42.40
2018-11-10T12:40:02.160Z,42.20
2018-11-10T12:42:32.177Z,41.30
2018-11-10T12:45:02.565Z,41.50
2018-11-10T12:47:32.628Z,40.50
2018-11-10T12:50:02.929Z,41.33
2018-11-10T12:52:33.801Z,41.57
2018-11-10T12:55:11.876Z,42.07
2018-11-10T12:57:42.575Z,41.03
2018-11-10T13:00:15.436Z,40.90
2018-11-10T13:02:47.432Z,42.77
2018-11-10T13:05:19.671Z,40.43
2018-11-10T13:07:49.627Z,40.13
2018-11-10T13:10:19.629Z,40.43
2018-11-10T13:12:50.349Z,39.03
2018-11-10T13:15:21.041Z,39.13
2018-11-10T13:17:51.312Z,40.10
2018-11-10T13:20:21.719Z,40.30
2018-11-10T13:22:51.778Z,40.20
2018-11-10T13:25:22.443Z,40.73
2018-11-10T13:27:52.839Z,39.97
2018-11-10T13:30:23.066Z,40.47
2018-11-10T13:32:54.005Z,40.50
2018-11-10T13:35:24.600Z,39.27
2018-11-10T13:37:54.824Z,39.17
2018-11-10T13:40:25.341Z,39.23
2018-11-10T13:42:55.701Z,40.33
2018-11-10T13:45:26.659Z,40.37
2018-11-10T13:47:56.707Z,39.87
2018-11-10T13:50:27.433Z,39.50
2018-11-10T13:52:58.243Z,40.47
2018-11-10T13:55:27.885Z,39.50
2018-11-10T13:57:58.100Z,40.83
2018-11-10T14:00:28.081Z,40.00
2018-11-10T14:02:58.377Z,40.07
2018-11-10T14:05:28.514Z,39.50
2018-11-10T14:07:58.706Z,40.20
2018-11-10T14:10:28.748Z,39.20
2018-11-10T14:12:58.952Z,39.70
2018-11-10T14:15:29.010Z,39.60
2018-11-10T14:17:59.051Z,39.40
2018-11-10T14:20:29.307Z,39.63
2018-11-10T14:22:59.879Z,39.97
2018-11-10T14:25:30.041Z,39.90
2018-11-10T14:28:00.380Z,39.67
2018-11-10T14:30:31.420Z,40.17
2018-11-10T14:33:01.695Z,40.60
2018-11-10T14:35:31.777Z,40.43
2018-11-10T14:38:02.066Z,40.30
2018-11-10T14:40:32.190Z,40.23
2018-11-10T14:43:02.246Z,40.60
2018-11-10T14:45:32.759Z,41.43
2018-11-10T14:48:03.595Z,40.17
2018-11-10T14:50:34.286Z,38.83
2018-11-10T14:53:04.502Z,39.30
2018-11-10T14:55:34.849Z,39.77
2018-11-10T14:58:05.306Z,39.73
2018-11-10T15:00:35.595Z,39.60
2018-11-10T15:03:05.990Z,40.07
2018-11-10T15:05:36.293Z,40.03
2018-11-10T15:08:07.015Z,39.93
2018-11-10T15:10:39.847Z,40.20
2018-11-10T15:13:10.088Z,42.93
2018-11-10T15:15:40.359Z,40.80
2018-11-10T15:18:10.898Z,41.07
2018-11-10T15:20:41.089Z,39.97
2018-11-10T15:23:11.709Z,40.50
2018-11-10T15:25:42.072Z,41.07
2018-11-10T15:28:12.419Z,40.30
2018-11-10T15:30:42.548Z,40.00
2018-11-10T15:33:12.820Z,40.33
2018-11-10T15:35:42.916Z,40.17
2018-11-10T15:38:12.949Z,40.50
2018-11-10T15:40:43.185Z,39.93
2018-11-10T15:43:13.709Z,39.57
2018-11-10T15:45:44.062Z,39.13
2018-11-10T15:48:14.301Z,39.50
2018-11-10T15:50:44.723Z,39.90
2018-11-10T15:53:14.887Z,40.60
2018-11-10T15:55:45.102Z,39.90
2018-11-10T15:58:15.452Z,39.63
2018-11-10T16:00:45.679Z,39.47
2018-11-10T16:03:15.805Z,40.97
2018-11-10T16:05:46.012Z,39.43
2018-11-10T16:08:16.212Z,40.00
2018-11-10T16:10:46.439Z,38.77
2018-11-10T16:13:16.704Z,39.77
2018-11-10T16:15:47.723Z,39.17
2018-11-10T16:18:18.357Z,39.97
2018-11-10T16:20:48.591Z,39.60
2018-11-10T16:23:18.859Z,39.97
2018-11-10T16:25:50.087Z,39.40
2018-11-10T16:28:20.158Z,39.17
2018-11-10T16:30:50.697Z,39.80
2018-11-10T16:33:21.128Z,39.73
2018-11-10T16:35:52.240Z,39.90
2018-11-10T16:38:22.184Z,39.13
2018-11-10T16:40:52.345Z,39.00
2018-11-10T16:43:22.730Z,39.27
2018-11-10T16:45:53.265Z,39.17
2018-11-10T16:48:23.500Z,40.30
2018-11-10T16:50:53.893Z,39.17
2018-11-10T16:53:24.804Z,39.47
2018-11-10T16:55:55.071Z,39.17
2018-11-10T16:58:25.436Z,38.97
2018-11-10T17:00:55.475Z,38.90
2018-11-10T17:03:32.778Z,39.17
2018-11-10T17:06:03.531Z,39.20
2018-11-10T17:08:33.895Z,38.80
2018-11-10T17:11:03.989Z,39.60
2018-11-10T17:13:34.575Z,39.13
2018-11-10T17:16:04.837Z,39.60
2018-11-10T17:18:35.620Z,39.30
2018-11-10T17:21:06.442Z,38.70
2018-11-10T17:23:37.115Z,39.20
2018-11-10T17:26:07.462Z,39.03
2018-11-10T17:28:37.746Z,39.17
2018-11-10T17:31:08.024Z,39.30
2018-11-10T17:33:38.313Z,40.00
2018-11-10T17:36:08.696Z,39.43
2018-11-10T17:38:38.959Z,39.03
2018-11-10T17:41:09.254Z,39.63
2018-11-10T17:43:39.644Z,39.60
2018-11-10T17:46:09.886Z,39.33
2018-11-10T17:48:40.881Z,39.17
2018-11-10T17:51:10.962Z,39.20
2018-11-10T17:53:41.249Z,40.13
2018-11-10T17:56:11.396Z,39.67
2018-11-10T17:58:43.381Z,40.40
2018-11-10T18:01:13.316Z,39.83
2018-11-10T18:03:43.426Z,40.10
2018-11-10T18:06:13.596Z,39.80
2018-11-10T18:08:44.316Z,39.43
2018-11-10T18:11:15.281Z,40.20
2018-11-10T18:13:52.180Z,40.03
2018-11-10T18:16:22.485Z,39.27
2018-11-10T18:18:53.335Z,39.00
2018-11-10T18:21:23.516Z,39.43
2018-11-10T18:23:53.750Z,40.40
2018-11-10T18:26:23.932Z,38.90
2018-11-10T18:28:54.054Z,39.83
2018-11-10T18:31:24.587Z,39.70
2018-11-10T18:33:54.888Z,41.17
2018-11-10T18:36:25.005Z,40.33
2018-11-10T18:38:55.268Z,40.33
2018-11-10T18:41:25.237Z,39.77
2018-11-10T18:43:55.244Z,39.63
2018-11-10T18:46:25.798Z,39.03
2018-11-10T18:48:55.837Z,38.83
2018-11-10T18:51:26.116Z,39.67
2018-11-10T18:53:57.573Z,40.07
2018-11-10T18:56:28.067Z,40.07
2018-11-10T18:58:58.423Z,39.67
2018-11-10T19:01:28.847Z,39.63
2018-11-10T19:03:58.888Z,40.90
2018-11-10T19:06:29.501Z,39.90
2018-11-10T19:09:00.402Z,39.83
2018-11-10T19:11:31.805Z,38.93
2018-11-10T19:14:02.702Z,40.27
2018-11-10T19:16:32.868Z,39.80
2018-11-10T19:19:04.175Z,39.67
2018-11-10T19:21:34.427Z,40.13
2018-11-10T19:24:04.666Z,40.63
2018-11-10T19:26:35.011Z,39.30
2018-11-10T19:29:05.829Z,39.20
2018-11-10T19:31:35.924Z,39.53
2018-11-10T19:34:06.029Z,40.23
2018-11-10T19:36:36.212Z,40.33
2018-11-10T19:39:09.262Z,40.77
2018-11-10T19:41:39.782Z,40.43
2018-11-10T19:44:10.497Z,40.70
2018-11-10T19:46:41.157Z,39.83
2018-11-10T19:49:12.275Z,40.43
2018-11-10T19:51:42.573Z,40.60
2018-11-10T19:54:15.338Z,39.63
2018-11-10T19:56:46.030Z,40.00
2018-11-10T19:59:17.387Z,39.90
2018-11-10T20:01:47.605Z,40.43
2018-11-10T20:04:17.971Z,40.43
2018-11-10T20:06:48.197Z,39.77
2018-11-10T20:09:18.313Z,40.70
2018-11-10T20:11:48.232Z,40.43
2018-11-10T20:14:18.244Z,41.20
2018-11-10T20:16:48.796Z,42.10
2018-11-10T20:19:19.208Z,44.53
2018-11-10T20:21:50.315Z,45.10
2018-11-10T20:24:20.260Z,44.67
2018-11-10T20:26:50.353Z,44.43
2018-11-10T20:29:20.507Z,42.90
2018-11-10T20:31:52.211Z,43.17
2018-11-10T20:34:22.520Z,42.30
2018-11-10T20:36:53.346Z,41.23
2018-11-10T20:39:24.298Z,39.20
2018-11-10T20:41:54.274Z,40.07
2018-11-10T20:44:24.385Z,40.30
2018-11-10T20:46:54.521Z,41.00
2018-11-10T20:49:25.072Z,40.50
2018-11-10T20:51:55.401Z,41.20
2018-11-10T20:54:25.390Z,40.13
2018-11-10T20:56:55.562Z,40.83
2018-11-10T20:59:25.826Z,39.63
2018-11-10T21:01:55.791Z,40.53
2018-11-10T21:04:25.979Z,39.73
2018-11-10T21:06:55.957Z,39.50
2018-11-10T21:09:26.165Z,39.77
2018-11-10T21:11:56.857Z,40.07
2018-11-10T21:14:27.211Z,40.70
2018-11-10T21:16:58.074Z,40.07
2018-11-10T21:19:28.256Z,40.33
2018-11-10T21:21:58.488Z,40.17
2018-11-10T21:24:28.748Z,40.50
2018-11-10T21:26:59.653Z,40.23
2018-11-10T21:29:29.863Z,41.10
2018-11-10T21:32:00.401Z,40.30
2018-11-10T21:34:30.550Z,40.30
2018-11-10T21:37:01.094Z,40.53
2018-11-10T21:39:31.504Z,39.50
2018-11-10T21:42:02.059Z,40.93
2018-11-10T21:44:32.484Z,40.47
2018-11-10T21:47:03.404Z,41.13
2018-11-10T21:49:34.112Z,40.13
2018-11-10T21:52:04.501Z,39.43
2018-11-10T21:54:34.486Z,39.53
2018-11-10T21:57:04.937Z,39.73
2018-11-10T21:59:35.598Z,40.10
2018-11-10T22:02:05.977Z,39.30
2018-11-10T22:04:36.040Z,39.73
2018-11-10T22:07:06.740Z,39.53
2018-11-10T22:09:37.051Z,39.30
2018-11-10T22:12:07.292Z,39.50
2018-11-10T22:14:37.763Z,39.80
2018-11-10T22:17:08.090Z,39.70
2018-11-10T22:19:38.544Z,40.53
2018-11-10T22:22:08.760Z,40.30
2018-11-10T22:24:39.366Z,40.40
2018-11-10T22:27:10.620Z,40.20
2018-11-10T22:29:40.692Z,40.23
2018-11-10T22:32:10.833Z,41.33
2018-11-10T22:34:41.172Z,40.90
2018-11-10T22:37:11.274Z,41.83
2018-11-10T22:39:41.985Z,41.10
2018-11-10T22:42:13.324Z,42.00
2018-11-10T22:44:43.821Z,41.47
2018-11-10T22:47:14.420Z,40.87
2018-11-10T22:49:44.659Z,41.57
2018-11-10T22:52:15.001Z,41.47
2018-11-10T22:54:45.522Z,41.47
2018-11-10T22:57:16.362Z,40.27
2018-11-10T22:59:47.201Z,40.80
2018-11-10T23:02:17.242Z,41.40
2018-11-10T23:04:48.590Z,40.93
2018-11-10T23:07:19.667Z,43.27
2018-11-10T23:09:50.002Z,44.20
2018-11-10T23:12:20.537Z,43.17
2018-11-10T23:14:50.947Z,41.93
2018-11-10T23:17:21.712Z,41.70
2018-11-10T23:19:51.939Z,42.60
2018-11-10T23:22:22.468Z,42.73
2018-11-10T23:24:52.612Z,41.73
2018-11-10T23:27:23.831Z,40.30
2018-11-10T23:29:54.625Z,40.50
2018-11-10T23:32:24.891Z,41.17
2018-11-10T23:34:55.385Z,41.40
2018-11-10T23:37:25.639Z,41.03
2018-11-10T23:39:55.912Z,41.13
2018-11-10T23:42:26.382Z,39.33
2018-11-10T23:44:57.981Z,40.43
2018-11-10T23:47:28.108Z,40.53
2018-11-10T23:49:58.130Z,41.27
2018-11-10T23:52:28.243Z,40.97
2018-11-10T23:54:58.610Z,40.27
2018-11-10T23:57:28.677Z,41.53
2018-11-10T23:59:58.939Z,40.13
